Metar Aviation Weather Data LICT

21°C Temp
13°C Dewpoint
% Humidity
Temperature
21 KM/H
13 MPH
11 KTS
220°
South West

Wind Speed
Partly Cloudy
Conditions
Pressure 1016.92 (hPa) - 30.03 (in)
Visibility 6.2 (mi) - 10 (km)

Current Conditions
LICT
Metar :LICT 211055Z 22011KT 9999 FEW025 21/13 Q1017 RMK SCT SCT200 VIS MIN 9999 WIND THR13 19010KT BLU
Tue 21st May 12:55 pm

  Metar Aviation API Data Provided by https://www.checkwx.com/ PHP scripts by weather34.com ©2019